sensor_id;sensor_type;location;lat;lon;timestamp;P1;durP1;ratioP1;P2;durP2;ratioP2
66095;SDS011;53861;53.422;14.530;2023-04-12T00:01:09;5.63;;;2.35;;
66095;SDS011;53861;53.422;14.530;2023-04-12T00:03:36;6.38;;;2.58;;
66095;SDS011;53861;53.422;14.530;2023-04-12T00:06:03;6.55;;;2.28;;
66095;SDS011;53861;53.422;14.530;2023-04-12T00:08:31;6.22;;;2.42;;
66095;SDS011;53861;53.422;14.530;2023-04-12T00:11:00;5.35;;;2.25;;
66095;SDS011;53861;53.422;14.530;2023-04-12T00:13:28;4.97;;;2.30;;
66095;SDS011;53861;53.422;14.530;2023-04-12T00:15:55;7.80;;;2.40;;
66095;SDS011;53861;53.422;14.530;2023-04-12T00:18:24;6.30;;;2.50;;
66095;SDS011;53861;53.422;14.530;2023-04-12T00:20:51;8.27;;;2.10;;
66095;SDS011;53861;53.422;14.530;2023-04-12T00:23:20;6.28;;;2.30;;
66095;SDS011;53861;53.422;14.530;2023-04-12T00:25:48;6.28;;;2.15;;
66095;SDS011;53861;53.422;14.530;2023-04-12T00:28:15;4.75;;;2.22;;
66095;SDS011;53861;53.422;14.530;2023-04-12T00:30:42;4.53;;;1.92;;
66095;SDS011;53861;53.422;14.530;2023-04-12T00:33:10;7.43;;;1.95;;
66095;SDS011;53861;53.422;14.530;2023-04-12T00:35:39;7.35;;;2.20;;
66095;SDS011;53861;53.422;14.530;2023-04-12T00:38:06;4.88;;;2.28;;
66095;SDS011;53861;53.422;14.530;2023-04-12T00:40:35;6.28;;;2.10;;
66095;SDS011;53861;53.422;14.530;2023-04-12T00:43:03;5.93;;;2.20;;
66095;SDS011;53861;53.422;14.530;2023-04-12T00:45:30;5.45;;;2.10;;
66095;SDS011;53861;53.422;14.530;2023-04-12T00:47:57;7.28;;;2.00;;
66095;SDS011;53861;53.422;14.530;2023-04-12T00:50:25;5.93;;;2.60;;
66095;SDS011;53861;53.422;14.530;2023-04-12T00:52:54;4.70;;;2.20;;
66095;SDS011;53861;53.422;14.530;2023-04-12T00:55:21;5.65;;;2.08;;
66095;SDS011;53861;53.422;14.530;2023-04-12T00:57:49;8.35;;;2.45;;
66095;SDS011;53861;53.422;14.530;2023-04-12T01:00:17;6.50;;;2.30;;
66095;SDS011;53861;53.422;14.530;2023-04-12T01:02:45;8.70;;;2.35;;
66095;SDS011;53861;53.422;14.530;2023-04-12T01:05:15;5.32;;;2.22;;
66095;SDS011;53861;53.422;14.530;2023-04-12T01:07:47;5.32;;;2.17;;
66095;SDS011;53861;53.422;14.530;2023-04-12T01:10:25;8.98;;;2.63;;
66095;SDS011;53861;53.422;14.530;2023-04-12T01:13:04;5.30;;;2.28;;
66095;SDS011;53861;53.422;14.530;2023-04-12T01:15:40;7.55;;;2.67;;
66095;SDS011;53861;53.422;14.530;2023-04-12T01:18:15;7.25;;;2.60;;
66095;SDS011;53861;53.422;14.530;2023-04-12T01:20:49;5.32;;;2.47;;
66095;SDS011;53861;53.422;14.530;2023-04-12T01:26:32;7.97;;;2.47;;
66095;SDS011;53861;53.422;14.530;2023-04-12T01:29:07;6.95;;;2.70;;
66095;SDS011;53861;53.422;14.530;2023-04-12T01:31:35;7.00;;;2.80;;
66095;SDS011;53861;53.422;14.530;2023-04-12T01:34:06;8.43;;;2.65;;
66095;SDS011;53861;53.422;14.530;2023-04-12T01:36:35;6.88;;;2.67;;
66095;SDS011;53861;53.422;14.530;2023-04-12T01:39:04;8.82;;;3.13;;
66095;SDS011;53861;53.422;14.530;2023-04-12T01:41:33;8.18;;;2.88;;
66095;SDS011;53861;53.422;14.530;2023-04-12T01:44:07;9.15;;;2.78;;
66095;SDS011;53861;53.422;14.530;2023-04-12T01:46:38;8.80;;;3.13;;
66095;SDS011;53861;53.422;14.530;2023-04-12T01:49:05;8.57;;;2.80;;
66095;SDS011;53861;53.422;14.530;2023-04-12T01:51:33;7.97;;;2.88;;
66095;SDS011;53861;53.422;14.530;2023-04-12T01:54:08;6.90;;;2.92;;
66095;SDS011;53861;53.422;14.530;2023-04-12T01:56:40;8.32;;;3.55;;
66095;SDS011;53861;53.422;14.530;2023-04-12T01:59:12;8.00;;;3.58;;
66095;SDS011;53861;53.422;14.530;2023-04-12T02:01:41;8.63;;;2.75;;
66095;SDS011;53861;53.422;14.530;2023-04-12T02:04:09;9.65;;;3.38;;
66095;SDS011;53861;53.422;14.530;2023-04-12T02:06:37;7.93;;;3.17;;
66095;SDS011;53861;53.422;14.530;2023-04-12T02:09:05;10.57;;;3.47;;
66095;SDS011;53861;53.422;14.530;2023-04-12T02:11:33;11.45;;;4.78;;
66095;SDS011;53861;53.422;14.530;2023-04-12T02:14:00;8.80;;;4.03;;
66095;SDS011;53861;53.422;14.530;2023-04-12T02:16:29;8.00;;;3.20;;
66095;SDS011;53861;53.422;14.530;2023-04-12T02:18:56;10.02;;;3.30;;
66095;SDS011;53861;53.422;14.530;2023-04-12T02:21:25;11.70;;;3.70;;
66095;SDS011;53861;53.422;14.530;2023-04-12T02:23:52;10.80;;;3.55;;
66095;SDS011;53861;53.422;14.530;2023-04-12T02:26:20;8.60;;;3.33;;
66095;SDS011;53861;53.422;14.530;2023-04-12T02:28:47;7.78;;;3.42;;
66095;SDS011;53861;53.422;14.530;2023-04-12T02:31:15;8.07;;;3.38;;
66095;SDS011;53861;53.422;14.530;2023-04-12T02:33:44;9.45;;;3.95;;
66095;SDS011;53861;53.422;14.530;2023-04-12T02:36:11;10.73;;;3.70;;
66095;SDS011;53861;53.422;14.530;2023-04-12T02:38:39;9.43;;;3.92;;
66095;SDS011;53861;53.422;14.530;2023-04-12T02:41:06;10.00;;;3.53;;
66095;SDS011;53861;53.422;14.530;2023-04-12T02:43:33;8.40;;;3.63;;
66095;SDS011;53861;53.422;14.530;2023-04-12T02:46:00;12.23;;;4.03;;
66095;SDS011;53861;53.422;14.530;2023-04-12T02:48:28;9.77;;;3.72;;
66095;SDS011;53861;53.422;14.530;2023-04-12T02:50:56;8.35;;;3.78;;
66095;SDS011;53861;53.422;14.530;2023-04-12T02:53:24;11.50;;;4.00;;
66095;SDS011;53861;53.422;14.530;2023-04-12T02:55:51;9.98;;;3.85;;
66095;SDS011;53861;53.422;14.530;2023-04-12T02:58:18;9.32;;;3.92;;
66095;SDS011;53861;53.422;14.530;2023-04-12T03:00:46;10.27;;;3.90;;
66095;SDS011;53861;53.422;14.530;2023-04-12T03:03:14;13.25;;;4.45;;
66095;SDS011;53861;53.422;14.530;2023-04-12T03:05:42;12.85;;;4.60;;
66095;SDS011;53861;53.422;14.530;2023-04-12T03:08:15;9.57;;;3.85;;
66095;SDS011;53861;53.422;14.530;2023-04-12T03:10:42;12.65;;;4.20;;
66095;SDS011;53861;53.422;14.530;2023-04-12T03:13:09;12.00;;;4.20;;
66095;SDS011;53861;53.422;14.530;2023-04-12T03:15:36;12.68;;;4.40;;
66095;SDS011;53861;53.422;14.530;2023-04-12T03:18:04;11.90;;;4.25;;
66095;SDS011;53861;53.422;14.530;2023-04-12T03:20:31;12.05;;;4.13;;
66095;SDS011;53861;53.422;14.530;2023-04-12T03:22:58;11.85;;;4.32;;
66095;SDS011;53861;53.422;14.530;2023-04-12T03:25:27;12.68;;;4.30;;
66095;SDS011;53861;53.422;14.530;2023-04-12T03:28:05;13.38;;;5.13;;
66095;SDS011;53861;53.422;14.530;2023-04-12T03:30:32;12.60;;;4.85;;
66095;SDS011;53861;53.422;14.530;2023-04-12T03:33:00;12.02;;;4.40;;
66095;SDS011;53861;53.422;14.530;2023-04-12T03:35:27;14.57;;;4.50;;
66095;SDS011;53861;53.422;14.530;2023-04-12T03:37:54;13.73;;;4.70;;
66095;SDS011;53861;53.422;14.530;2023-04-12T03:40:21;15.95;;;4.70;;
66095;SDS011;53861;53.422;14.530;2023-04-12T03:42:50;12.48;;;4.78;;
66095;SDS011;53861;53.422;14.530;2023-04-12T03:45:17;13.70;;;4.30;;
66095;SDS011;53861;53.422;14.530;2023-04-12T03:47:45;12.90;;;4.22;;
66095;SDS011;53861;53.422;14.530;2023-04-12T03:50:12;14.25;;;4.68;;
66095;SDS011;53861;53.422;14.530;2023-04-12T03:52:43;18.92;;;4.57;;
66095;SDS011;53861;53.422;14.530;2023-04-12T03:55:10;16.23;;;4.30;;
66095;SDS011;53861;53.422;14.530;2023-04-12T03:57:38;14.77;;;4.68;;
66095;SDS011;53861;53.422;14.530;2023-04-12T04:00:08;14.70;;;4.93;;
66095;SDS011;53861;53.422;14.530;2023-04-12T04:02:37;12.25;;;4.70;;
66095;SDS011;53861;53.422;14.530;2023-04-12T04:05:07;13.52;;;4.32;;
66095;SDS011;53861;53.422;14.530;2023-04-12T04:07:37;13.98;;;5.28;;
66095;SDS011;53861;53.422;14.530;2023-04-12T04:10:05;68.32;;;31.80;;
66095;SDS011;53861;53.422;14.530;2023-04-12T04:12:32;69.97;;;35.33;;
66095;SDS011;53861;53.422;14.530;2023-04-12T04:15:00;34.53;;;15.10;;
66095;SDS011;53861;53.422;14.530;2023-04-12T04:17:28;13.80;;;5.35;;
66095;SDS011;53861;53.422;14.530;2023-04-12T04:19:56;16.75;;;5.20;;
66095;SDS011;53861;53.422;14.530;2023-04-12T04:22:24;18.27;;;5.28;;
66095;SDS011;53861;53.422;14.530;2023-04-12T04:24:51;11.38;;;4.70;;
66095;SDS011;53861;53.422;14.530;2023-04-12T04:27:20;14.15;;;4.90;;
66095;SDS011;53861;53.422;14.530;2023-04-12T04:29:47;13.32;;;4.53;;
66095;SDS011;53861;53.422;14.530;2023-04-12T04:32:17;17.10;;;5.15;;
66095;SDS011;53861;53.422;14.530;2023-04-12T04:34:46;13.05;;;4.55;;
66095;SDS011;53861;53.422;14.530;2023-04-12T04:37:14;19.92;;;7.43;;
66095;SDS011;53861;53.422;14.530;2023-04-12T04:39:41;25.48;;;10.40;;
66095;SDS011;53861;53.422;14.530;2023-04-12T04:42:09;20.80;;;8.13;;
66095;SDS011;53861;53.422;14.530;2023-04-12T04:44:36;18.75;;;7.38;;
66095;SDS011;53861;53.422;14.530;2023-04-12T04:47:04;22.48;;;7.95;;
66095;SDS011;53861;53.422;14.530;2023-04-12T04:52:25;61.97;;;20.08;;
66095;SDS011;53861;53.422;14.530;2023-04-12T04:54:53;53.95;;;19.30;;
66095;SDS011;53861;53.422;14.530;2023-04-12T04:57:22;43.40;;;16.17;;
66095;SDS011;53861;53.422;14.530;2023-04-12T04:59:49;35.70;;;15.15;;
66095;SDS011;53861;53.422;14.530;2023-04-12T05:02:16;33.15;;;12.20;;
66095;SDS011;53861;53.422;14.530;2023-04-12T05:04:44;22.08;;;9.35;;
66095;SDS011;53861;53.422;14.530;2023-04-12T05:07:12;16.20;;;5.70;;
66095;SDS011;53861;53.422;14.530;2023-04-12T05:09:40;16.90;;;5.20;;
66095;SDS011;53861;53.422;14.530;2023-04-12T05:12:07;12.77;;;5.05;;
66095;SDS011;53861;53.422;14.530;2023-04-12T05:14:34;13.48;;;5.47;;
66095;SDS011;53861;53.422;14.530;2023-04-12T05:17:03;15.40;;;5.93;;
66095;SDS011;53861;53.422;14.530;2023-04-12T05:19:30;14.02;;;5.35;;
66095;SDS011;53861;53.422;14.530;2023-04-12T05:21:57;13.85;;;6.13;;
66095;SDS011;53861;53.422;14.530;2023-04-12T05:24:26;13.15;;;6.18;;
66095;SDS011;53861;53.422;14.530;2023-04-12T05:26:53;17.38;;;6.55;;
66095;SDS011;53861;53.422;14.530;2023-04-12T05:29:21;16.23;;;6.35;;
66095;SDS011;53861;53.422;14.530;2023-04-12T05:31:48;17.20;;;5.45;;
66095;SDS011;53861;53.422;14.530;2023-04-12T05:34:15;14.15;;;5.53;;
66095;SDS011;53861;53.422;14.530;2023-04-12T05:36:43;15.32;;;5.20;;
66095;SDS011;53861;53.422;14.530;2023-04-12T05:39:10;15.85;;;6.13;;
66095;SDS011;53861;53.422;14.530;2023-04-12T05:41:39;16.98;;;6.35;;
66095;SDS011;53861;53.422;14.530;2023-04-12T05:44:06;15.40;;;6.40;;
66095;SDS011;53861;53.422;14.530;2023-04-12T05:46:33;13.98;;;6.20;;
66095;SDS011;53861;53.422;14.530;2023-04-12T05:49:01;21.17;;;6.28;;
66095;SDS011;53861;53.422;14.530;2023-04-12T05:51:28;15.02;;;6.55;;
66095;SDS011;53861;53.422;14.530;2023-04-12T05:53:55;19.17;;;6.80;;
66095;SDS011;53861;53.422;14.530;2023-04-12T05:56:23;14.48;;;5.35;;
66095;SDS011;53861;53.422;14.530;2023-04-12T05:58:51;13.57;;;5.38;;
66095;SDS011;53861;53.422;14.530;2023-04-12T06:01:19;15.50;;;5.75;;
66095;SDS011;53861;53.422;14.530;2023-04-12T06:03:46;12.45;;;5.03;;
66095;SDS011;53861;53.422;14.530;2023-04-12T06:06:14;13.20;;;4.53;;
66095;SDS011;53861;53.422;14.530;2023-04-12T06:08:41;9.82;;;4.25;;
66095;SDS011;53861;53.422;14.530;2023-04-12T06:11:08;9.13;;;4.43;;
66095;SDS011;53861;53.422;14.530;2023-04-12T06:13:36;8.30;;;3.60;;
66095;SDS011;53861;53.422;14.530;2023-04-12T06:16:06;10.57;;;4.03;;
66095;SDS011;53861;53.422;14.530;2023-04-12T06:18:33;15.25;;;5.50;;
66095;SDS011;53861;53.422;14.530;2023-04-12T06:21:01;14.63;;;4.68;;
66095;SDS011;53861;53.422;14.530;2023-04-12T06:23:32;10.52;;;4.15;;
66095;SDS011;53861;53.422;14.530;2023-04-12T06:25:59;10.80;;;4.55;;
66095;SDS011;53861;53.422;14.530;2023-04-12T06:28:27;14.00;;;4.60;;
66095;SDS011;53861;53.422;14.530;2023-04-12T06:30:54;21.08;;;4.90;;
66095;SDS011;53861;53.422;14.530;2023-04-12T06:33:23;12.73;;;4.68;;
66095;SDS011;53861;53.422;14.530;2023-04-12T06:35:50;11.00;;;5.18;;
66095;SDS011;53861;53.422;14.530;2023-04-12T06:38:18;12.45;;;4.97;;
66095;SDS011;53861;53.422;14.530;2023-04-12T06:40:45;8.95;;;4.50;;
66095;SDS011;53861;53.422;14.530;2023-04-12T06:43:13;12.15;;;4.65;;
66095;SDS011;53861;53.422;14.530;2023-04-12T06:45:41;10.07;;;4.50;;
66095;SDS011;53861;53.422;14.530;2023-04-12T06:48:08;16.35;;;5.28;;
66095;SDS011;53861;53.422;14.530;2023-04-12T06:50:37;14.10;;;5.70;;
66095;SDS011;53861;53.422;14.530;2023-04-12T06:53:05;14.27;;;5.28;;
66095;SDS011;53861;53.422;14.530;2023-04-12T06:55:32;11.48;;;5.00;;
66095;SDS011;53861;53.422;14.530;2023-04-12T06:58:00;10.45;;;4.45;;
66095;SDS011;53861;53.422;14.530;2023-04-12T07:00:27;10.60;;;4.60;;
66095;SDS011;53861;53.422;14.530;2023-04-12T07:02:55;11.88;;;4.82;;
66095;SDS011;53861;53.422;14.530;2023-04-12T07:05:22;13.88;;;4.97;;
66095;SDS011;53861;53.422;14.530;2023-04-12T07:07:51;10.10;;;4.20;;
66095;SDS011;53861;53.422;14.530;2023-04-12T07:10:18;11.40;;;4.22;;
66095;SDS011;53861;53.422;14.530;2023-04-12T07:12:45;14.48;;;4.90;;
66095;SDS011;53861;53.422;14.530;2023-04-12T07:15:13;11.05;;;4.30;;
66095;SDS011;53861;53.422;14.530;2023-04-12T07:17:41;9.90;;;4.40;;
66095;SDS011;53861;53.422;14.530;2023-04-12T07:20:09;10.82;;;4.82;;
66095;SDS011;53861;53.422;14.530;2023-04-12T07:22:37;10.30;;;4.30;;
66095;SDS011;53861;53.422;14.530;2023-04-12T07:25:06;9.98;;;4.47;;
66095;SDS011;53861;53.422;14.530;2023-04-12T07:27:35;13.60;;;4.38;;
66095;SDS011;53861;53.422;14.530;2023-04-12T07:30:03;10.77;;;4.32;;
66095;SDS011;53861;53.422;14.530;2023-04-12T07:32:30;7.85;;;4.00;;
66095;SDS011;53861;53.422;14.530;2023-04-12T07:34:57;7.18;;;3.42;;
66095;SDS011;53861;53.422;14.530;2023-04-12T07:37:25;8.30;;;3.63;;
66095;SDS011;53861;53.422;14.530;2023-04-12T07:39:52;9.32;;;3.97;;
66095;SDS011;53861;53.422;14.530;2023-04-12T07:42:21;9.85;;;3.47;;
66095;SDS011;53861;53.422;14.530;2023-04-12T07:44:48;11.35;;;4.00;;
66095;SDS011;53861;53.422;14.530;2023-04-12T07:47:15;12.52;;;4.03;;
66095;SDS011;53861;53.422;14.530;2023-04-12T07:49:42;14.02;;;3.75;;
66095;SDS011;53861;53.422;14.530;2023-04-12T07:52:10;10.40;;;3.20;;
66095;SDS011;53861;53.422;14.530;2023-04-12T07:54:37;13.60;;;3.60;;
66095;SDS011;53861;53.422;14.530;2023-04-12T07:57:07;7.30;;;2.70;;
66095;SDS011;53861;53.422;14.530;2023-04-12T07:59:36;11.00;;;2.92;;
66095;SDS011;53861;53.422;14.530;2023-04-12T08:02:03;6.90;;;2.58;;
66095;SDS011;53861;53.422;14.530;2023-04-12T08:04:31;8.85;;;3.10;;
66095;SDS011;53861;53.422;14.530;2023-04-12T08:06:58;9.13;;;3.08;;
66095;SDS011;53861;53.422;14.530;2023-04-12T08:09:25;6.93;;;2.47;;
66095;SDS011;53861;53.422;14.530;2023-04-12T08:11:53;6.68;;;2.40;;
66095;SDS011;53861;53.422;14.530;2023-04-12T08:14:21;9.52;;;3.63;;
66095;SDS011;53861;53.422;14.530;2023-04-12T08:16:50;8.20;;;3.00;;
66095;SDS011;53861;53.422;14.530;2023-04-12T08:19:17;8.82;;;3.45;;
66095;SDS011;53861;53.422;14.530;2023-04-12T08:21:45;8.75;;;3.30;;
66095;SDS011;53861;53.422;14.530;2023-04-12T08:24:13;8.45;;;3.25;;
66095;SDS011;53861;53.422;14.530;2023-04-12T08:26:40;6.80;;;2.95;;
66095;SDS011;53861;53.422;14.530;2023-04-12T08:29:07;8.40;;;3.15;;
66095;SDS011;53861;53.422;14.530;2023-04-12T08:31:35;8.18;;;2.90;;
66095;SDS011;53861;53.422;14.530;2023-04-12T08:34:04;8.93;;;2.80;;
66095;SDS011;53861;53.422;14.530;2023-04-12T08:36:31;9.98;;;3.30;;
66095;SDS011;53861;53.422;14.530;2023-04-12T08:38:58;6.45;;;2.72;;
66095;SDS011;53861;53.422;14.530;2023-04-12T08:41:26;10.85;;;3.13;;
66095;SDS011;53861;53.422;14.530;2023-04-12T08:43:54;8.73;;;3.33;;
66095;SDS011;53861;53.422;14.530;2023-04-12T08:46:21;8.82;;;3.47;;
66095;SDS011;53861;53.422;14.530;2023-04-12T08:48:49;7.35;;;2.80;;
66095;SDS011;53861;53.422;14.530;2023-04-12T08:51:20;7.82;;;2.75;;
66095;SDS011;53861;53.422;14.530;2023-04-12T08:53:48;8.88;;;3.05;;
66095;SDS011;53861;53.422;14.530;2023-04-12T08:56:15;5.10;;;2.13;;
66095;SDS011;53861;53.422;14.530;2023-04-12T08:58:44;5.43;;;2.05;;
66095;SDS011;53861;53.422;14.530;2023-04-12T09:01:14;7.90;;;2.22;;
66095;SDS011;53861;53.422;14.530;2023-04-12T09:03:42;7.15;;;2.38;;
66095;SDS011;53861;53.422;14.530;2023-04-12T09:06:10;5.85;;;1.90;;
66095;SDS011;53861;53.422;14.530;2023-04-12T09:08:50;6.93;;;2.17;;
66095;SDS011;53861;53.422;14.530;2023-04-12T09:11:22;5.60;;;2.20;;
66095;SDS011;53861;53.422;14.530;2023-04-12T09:13:50;5.15;;;2.10;;
66095;SDS011;53861;53.422;14.530;2023-04-12T09:16:32;6.70;;;2.50;;
66095;SDS011;53861;53.422;14.530;2023-04-12T09:19:00;6.57;;;2.33;;
66095;SDS011;53861;53.422;14.530;2023-04-12T09:21:28;6.53;;;2.10;;
66095;SDS011;53861;53.422;14.530;2023-04-12T09:24:04;6.90;;;2.30;;
66095;SDS011;53861;53.422;14.530;2023-04-12T09:26:34;7.93;;;2.00;;
66095;SDS011;53861;53.422;14.530;2023-04-12T09:29:01;8.70;;;2.35;;
66095;SDS011;53861;53.422;14.530;2023-04-12T09:31:29;5.32;;;2.00;;
66095;SDS011;53861;53.422;14.530;2023-04-12T09:34:04;5.18;;;1.80;;
66095;SDS011;53861;53.422;14.530;2023-04-12T09:36:36;6.47;;;2.83;;
66095;SDS011;53861;53.422;14.530;2023-04-12T09:39:06;8.20;;;2.70;;
66095;SDS011;53861;53.422;14.530;2023-04-12T09:41:33;7.60;;;2.60;;
66095;SDS011;53861;53.422;14.530;2023-04-12T09:44:01;7.47;;;2.50;;
66095;SDS011;53861;53.422;14.530;2023-04-12T09:46:29;6.50;;;2.58;;
66095;SDS011;53861;53.422;14.530;2023-04-12T09:48:56;8.13;;;2.60;;
66095;SDS011;53861;53.422;14.530;2023-04-12T09:51:25;9.13;;;2.83;;
66095;SDS011;53861;53.422;14.530;2023-04-12T09:53:54;7.50;;;2.60;;
66095;SDS011;53861;53.422;14.530;2023-04-12T09:56:28;7.20;;;2.50;;
66095;SDS011;53861;53.422;14.530;2023-04-12T09:58:59;5.32;;;2.50;;
66095;SDS011;53861;53.422;14.530;2023-04-12T10:01:28;8.43;;;2.67;;
66095;SDS011;53861;53.422;14.530;2023-04-12T10:04:00;5.32;;;2.20;;
66095;SDS011;53861;53.422;14.530;2023-04-12T10:06:28;32.45;;;15.75;;
66095;SDS011;53861;53.422;14.530;2023-04-12T10:08:55;23.33;;;12.82;;
66095;SDS011;53861;53.422;14.530;2023-04-12T10:11:24;16.17;;;6.95;;
66095;SDS011;53861;53.422;14.530;2023-04-12T10:13:55;8.57;;;3.35;;
66095;SDS011;53861;53.422;14.530;2023-04-12T10:16:23;6.53;;;2.58;;
66095;SDS011;53861;53.422;14.530;2023-04-12T10:18:53;5.60;;;2.38;;
66095;SDS011;53861;53.422;14.530;2023-04-12T10:21:20;5.47;;;2.35;;
66095;SDS011;53861;53.422;14.530;2023-04-12T10:23:49;8.43;;;2.50;;
66095;SDS011;53861;53.422;14.530;2023-04-12T10:26:16;6.53;;;2.88;;
66095;SDS011;53861;53.422;14.530;2023-04-12T10:31:56;5.60;;;2.50;;
66095;SDS011;53861;53.422;14.530;2023-04-12T10:34:28;6.40;;;2.17;;
66095;SDS011;53861;53.422;14.530;2023-04-12T10:36:57;6.95;;;3.10;;
66095;SDS011;53861;53.422;14.530;2023-04-12T10:39:35;6.97;;;2.83;;
66095;SDS011;53861;53.422;14.530;2023-04-12T10:42:20;6.05;;;2.30;;
66095;SDS011;53861;53.422;14.530;2023-04-12T10:44:50;7.35;;;2.60;;
66095;SDS011;53861;53.422;14.530;2023-04-12T10:50:26;6.60;;;3.17;;
66095;SDS011;53861;53.422;14.530;2023-04-12T10:55:49;4.68;;;2.40;;
66095;SDS011;53861;53.422;14.530;2023-04-12T11:01:22;7.13;;;3.17;;
66095;SDS011;53861;53.422;14.530;2023-04-12T11:04:05;6.22;;;2.83;;
66095;SDS011;53861;53.422;14.530;2023-04-12T11:06:49;7.72;;;2.60;;
66095;SDS011;53861;53.422;14.530;2023-04-12T11:09:23;7.22;;;2.50;;
66095;SDS011;53861;53.422;14.530;2023-04-12T11:11:55;6.20;;;2.60;;
66095;SDS011;53861;53.422;14.530;2023-04-12T11:14:27;5.95;;;2.30;;
66095;SDS011;53861;53.422;14.530;2023-04-12T11:19:51;7.47;;;2.13;;
66095;SDS011;53861;53.422;14.530;2023-04-12T11:22:24;5.68;;;1.98;;
66095;SDS011;53861;53.422;14.530;2023-04-12T11:24:53;6.85;;;1.60;;
66095;SDS011;53861;53.422;14.530;2023-04-12T11:27:22;5.88;;;1.75;;
66095;SDS011;53861;53.422;14.530;2023-04-12T11:29:51;5.15;;;1.52;;
66095;SDS011;53861;53.422;14.530;2023-04-12T11:32:20;5.72;;;1.85;;
66095;SDS011;53861;53.422;14.530;2023-04-12T11:34:50;6.50;;;1.73;;
66095;SDS011;53861;53.422;14.530;2023-04-12T11:37:18;6.82;;;2.00;;
66095;SDS011;53861;53.422;14.530;2023-04-12T11:39:48;5.55;;;1.70;;
66095;SDS011;53861;53.422;14.530;2023-04-12T11:42:18;5.45;;;1.70;;
66095;SDS011;53861;53.422;14.530;2023-04-12T11:44:49;5.33;;;1.63;;
66095;SDS011;53861;53.422;14.530;2023-04-12T11:47:18;5.50;;;1.42;;
66095;SDS011;53861;53.422;14.530;2023-04-12T11:49:47;4.70;;;1.77;;
66095;SDS011;53861;53.422;14.530;2023-04-12T11:52:17;5.07;;;1.45;;
66095;SDS011;53861;53.422;14.530;2023-04-12T11:54:46;3.80;;;1.60;;
66095;SDS011;53861;53.422;14.530;2023-04-12T11:57:15;5.07;;;1.67;;
66095;SDS011;53861;53.422;14.530;2023-04-12T11:59:45;5.03;;;1.75;;
66095;SDS011;53861;53.422;14.530;2023-04-12T12:02:14;4.10;;;1.50;;
66095;SDS011;53861;53.422;14.530;2023-04-12T12:04:44;4.28;;;1.40;;
66095;SDS011;53861;53.422;14.530;2023-04-12T12:07:14;6.13;;;1.65;;
66095;SDS011;53861;53.422;14.530;2023-04-12T12:09:44;5.10;;;1.50;;
66095;SDS011;53861;53.422;14.530;2023-04-12T12:12:12;3.88;;;1.40;;
66095;SDS011;53861;53.422;14.530;2023-04-12T12:14:42;4.43;;;1.40;;
66095;SDS011;53861;53.422;14.530;2023-04-12T12:17:12;3.40;;;1.33;;
66095;SDS011;53861;53.422;14.530;2023-04-12T12:19:41;5.88;;;1.40;;
66095;SDS011;53861;53.422;14.530;2023-04-12T12:22:12;5.75;;;1.60;;
66095;SDS011;53861;53.422;14.530;2023-04-12T12:24:45;5.32;;;1.60;;
66095;SDS011;53861;53.422;14.530;2023-04-12T12:27:19;5.88;;;1.48;;
66095;SDS011;53861;53.422;14.530;2023-04-12T12:29:48;4.70;;;1.40;;
66095;SDS011;53861;53.422;14.530;2023-04-12T12:32:18;5.85;;;1.38;;
66095;SDS011;53861;53.422;14.530;2023-04-12T12:34:51;3.72;;;1.40;;
66095;SDS011;53861;53.422;14.530;2023-04-12T12:37:20;6.55;;;1.40;;
66095;SDS011;53861;53.422;14.530;2023-04-12T12:40:02;3.97;;;1.30;;
66095;SDS011;53861;53.422;14.530;2023-04-12T12:42:37;4.95;;;1.40;;
66095;SDS011;53861;53.422;14.530;2023-04-12T12:45:11;3.80;;;1.13;;
66095;SDS011;53861;53.422;14.530;2023-04-12T12:47:49;5.05;;;1.63;;
66095;SDS011;53861;53.422;14.530;2023-04-12T12:50:18;3.70;;;1.40;;
66095;SDS011;53861;53.422;14.530;2023-04-12T12:52:49;3.22;;;1.50;;
66095;SDS011;53861;53.422;14.530;2023-04-12T12:55:18;6.22;;;1.38;;
66095;SDS011;53861;53.422;14.530;2023-04-12T12:57:47;4.18;;;1.52;;
66095;SDS011;53861;53.422;14.530;2023-04-12T13:00:18;4.22;;;1.50;;
66095;SDS011;53861;53.422;14.530;2023-04-12T13:02:47;3.30;;;1.30;;
66095;SDS011;53861;53.422;14.530;2023-04-12T13:05:15;8.52;;;1.52;;
66095;SDS011;53861;53.422;14.530;2023-04-12T13:07:43;3.95;;;1.48;;
66095;SDS011;53861;53.422;14.530;2023-04-12T13:10:10;4.93;;;1.50;;
66095;SDS011;53861;53.422;14.530;2023-04-12T13:12:39;3.15;;;1.30;;
66095;SDS011;53861;53.422;14.530;2023-04-12T13:15:07;2.72;;;1.20;;
66095;SDS011;53861;53.422;14.530;2023-04-12T13:17:36;2.67;;;1.25;;
66095;SDS011;53861;53.422;14.530;2023-04-12T13:20:04;5.75;;;1.50;;
66095;SDS011;53861;53.422;14.530;2023-04-12T13:22:33;4.10;;;1.23;;
66095;SDS011;53861;53.422;14.530;2023-04-12T13:25:01;6.10;;;1.50;;
66095;SDS011;53861;53.422;14.530;2023-04-12T13:27:28;3.72;;;1.30;;
66095;SDS011;53861;53.422;14.530;2023-04-12T13:29:58;3.80;;;1.27;;
66095;SDS011;53861;53.422;14.530;2023-04-12T13:32:25;3.92;;;1.30;;
66095;SDS011;53861;53.422;14.530;2023-04-12T13:34:53;6.30;;;1.65;;
66095;SDS011;53861;53.422;14.530;2023-04-12T13:37:20;1.85;;;1.02;;
66095;SDS011;53861;53.422;14.530;2023-04-12T13:39:49;4.25;;;1.23;;
66095;SDS011;53861;53.422;14.530;2023-04-12T13:42:17;6.10;;;1.10;;
66095;SDS011;53861;53.422;14.530;2023-04-12T13:44:44;3.83;;;1.10;;
66095;SDS011;53861;53.422;14.530;2023-04-12T13:47:14;3.30;;;1.13;;
66095;SDS011;53861;53.422;14.530;2023-04-12T13:49:43;3.13;;;1.35;;
66095;SDS011;53861;53.422;14.530;2023-04-12T13:52:10;4.75;;;1.50;;
66095;SDS011;53861;53.422;14.530;2023-04-12T13:54:38;4.68;;;1.30;;
66095;SDS011;53861;53.422;14.530;2023-04-12T13:57:07;5.40;;;1.20;;
66095;SDS011;53861;53.422;14.530;2023-04-12T13:59:35;6.57;;;1.30;;
66095;SDS011;53861;53.422;14.530;2023-04-12T14:02:02;4.38;;;1.45;;
66095;SDS011;53861;53.422;14.530;2023-04-12T14:04:31;3.70;;;1.13;;
66095;SDS011;53861;53.422;14.530;2023-04-12T14:06:59;2.42;;;1.00;;
66095;SDS011;53861;53.422;14.530;2023-04-12T14:09:27;3.10;;;1.30;;
66095;SDS011;53861;53.422;14.530;2023-04-12T14:11:55;2.85;;;1.20;;
66095;SDS011;53861;53.422;14.530;2023-04-12T14:14:23;3.40;;;1.20;;
66095;SDS011;53861;53.422;14.530;2023-04-12T14:16:52;3.47;;;1.40;;
66095;SDS011;53861;53.422;14.530;2023-04-12T14:19:22;4.80;;;1.38;;
66095;SDS011;53861;53.422;14.530;2023-04-12T14:21:50;4.78;;;1.45;;
66095;SDS011;53861;53.422;14.530;2023-04-12T14:24:18;6.93;;;1.33;;
66095;SDS011;53861;53.422;14.530;2023-04-12T14:26:46;3.40;;;1.38;;
66095;SDS011;53861;53.422;14.530;2023-04-12T14:29:14;4.00;;;1.38;;
66095;SDS011;53861;53.422;14.530;2023-04-12T14:31:42;2.90;;;1.40;;
66095;SDS011;53861;53.422;14.530;2023-04-12T14:34:09;5.03;;;1.20;;
66095;SDS011;53861;53.422;14.530;2023-04-12T14:36:38;3.72;;;1.30;;
66095;SDS011;53861;53.422;14.530;2023-04-12T14:39:06;4.57;;;1.20;;
66095;SDS011;53861;53.422;14.530;2023-04-12T14:41:35;2.72;;;1.17;;
66095;SDS011;53861;53.422;14.530;2023-04-12T14:44:02;3.80;;;1.20;;
66095;SDS011;53861;53.422;14.530;2023-04-12T14:46:30;4.70;;;1.27;;
66095;SDS011;53861;53.422;14.530;2023-04-12T14:48:57;12.70;;;2.30;;
66095;SDS011;53861;53.422;14.530;2023-04-12T14:51:25;4.78;;;1.30;;
66095;SDS011;53861;53.422;14.530;2023-04-12T14:53:53;4.15;;;1.20;;
66095;SDS011;53861;53.422;14.530;2023-04-12T14:56:23;3.92;;;1.17;;
66095;SDS011;53861;53.422;14.530;2023-04-12T14:58:52;5.25;;;1.45;;